CheckWX is a tool to help pilots better visualize weather data.  It is not intended as a substitute for an official pre-flight weather briefing.

20:26:55 UTC

KFQD METAR
Rutherford Co - Marchman Field Airport
Rutherfordton, North Carolina, USA
Current

27 mins ago

KFQD 202000Z AUTO 22007G17KT 10SM SCT020 BKN026 OVC110 10/04 A2973 RMK AO2
Observed
Apr-20 @ 20:00 UTC
Wind
  • 220° at 7 KTS
  • Gusting to 17 KTS
Visibility
10 SM
Flight Rules
MVFR
Cloud Levels
  • Scattered at 2,000' AGL
  • Broken at 2,600' AGL
  • Overcast at 11,000' AGL
Temperature
10°C / 50°F
Dewpoint
C / 39°F
Humidity
67%
Altimeter
29.73" Hg
Pressure
1006.82 hPa
Previous

47 mins ago

KFQD 201940Z AUTO 21007G14KT 10SM SCT022 BKN050 OVC075 10/06 A2973 RMK AO2
Observed
Apr-20 @ 19:40 UTC
Wind
  • 210° at 7 KTS
  • Gusting to 14 KTS
Visibility
10 SM
Flight Rules
VFR
Cloud Levels
  • Scattered at 2,200' AGL
  • Broken at 5,000' AGL
  • Overcast at 7,500' AGL
Temperature
10°C / 50°F
Dewpoint
C / 43°F
Humidity
76%
Altimeter
29.73" Hg
Pressure
1006.82 hPa
Previous

1 hour ago

KFQD 201920Z AUTO 21008KT 10SM OVC060 09/06 A2973 RMK AO2
Observed
Apr-20 @ 19:20 UTC
Wind
  • 210° at 8 KTS
Visibility
10 SM
Flight Rules
VFR
Cloud Levels
  • Overcast at 6,000' AGL
Temperature
C / 48°F
Dewpoint
C / 43°F
Humidity
82%
Altimeter
29.73" Hg
Pressure
1006.82 hPa